createdAt,value
2022-12-31T00:02:13.300Z,102580.77
2022-12-31T00:04:40.598Z,102584.98
2022-12-31T00:07:07.564Z,102583.02
2022-12-31T00:09:34.489Z,102582.65
2022-12-31T00:12:01.465Z,102585.51
2022-12-31T00:14:28.482Z,102585.52
2022-12-31T00:16:55.556Z,102589.90
2022-12-31T00:19:22.696Z,102590.65
2022-12-31T00:21:49.643Z,102588.63
2022-12-31T00:24:16.747Z,102586.80
2022-12-31T00:26:43.764Z,102587.48
2022-12-31T00:29:11.015Z,102584.15
2022-12-31T00:31:39.277Z,102582.04
2022-12-31T00:34:07.185Z,102583.63
2022-12-31T00:36:37.793Z,102581.35
2022-12-31T00:39:07.250Z,102584.15
2022-12-31T00:41:34.962Z,102588.02
2022-12-31T00:44:02.666Z,102588.04
2022-12-31T00:46:29.948Z,102590.62
2022-12-31T00:48:57.039Z,102593.39
2022-12-31T00:51:27.575Z,102589.15
2022-12-31T00:53:56.349Z,102591.48
2022-12-31T00:56:26.187Z,102590.59
2022-12-31T00:58:53.761Z,102593.27
2022-12-31T01:01:41.120Z,102588.00
2022-12-31T01:04:15.955Z,102586.65
2022-12-31T01:06:44.371Z,102588.33
2022-12-31T01:09:13.535Z,102587.75
2022-12-31T01:11:42.223Z,102590.20
2022-12-31T01:14:16.133Z,102590.73
2022-12-31T01:16:53.705Z,102593.29
2022-12-31T01:19:24.542Z,102587.77
2022-12-31T01:21:52.444Z,102593.27
2022-12-31T01:24:20.091Z,102588.33
2022-12-31T01:26:47.137Z,102588.57
2022-12-31T01:29:14.698Z,102586.34
2022-12-31T01:31:42.122Z,102590.39
2022-12-31T01:34:09.679Z,102590.84
2022-12-31T01:36:38.131Z,102589.78
2022-12-31T01:39:07.192Z,102595.28
2022-12-31T01:41:40.111Z,102593.81
2022-12-31T01:44:13.133Z,102596.88
2022-12-31T01:46:49.446Z,102593.09
2022-12-31T01:49:39.449Z,102588.20
2022-12-31T01:52:13.477Z,102591.18
2022-12-31T01:54:52.986Z,102594.27
2022-12-31T01:57:21.277Z,102597.97
2022-12-31T01:59:48.347Z,102596.83
2022-12-31T02:02:16.466Z,102595.85
2022-12-31T02:04:43.849Z,102597.98
2022-12-31T02:07:11.748Z,102599.98
2022-12-31T02:09:41.411Z,102600.23
2022-12-31T02:12:09.898Z,102601.84
2022-12-31T02:14:48.088Z,102602.80
2022-12-31T02:17:58.193Z,102604.38
2022-12-31T02:21:05.140Z,102602.70
2022-12-31T02:24:01.796Z,102601.23
2022-12-31T02:26:45.825Z,102596.91
2022-12-31T02:29:34.040Z,102596.35
2022-12-31T02:32:07.955Z,102598.80
2022-12-31T02:34:40.884Z,102597.31
2022-12-31T02:37:12.625Z,102594.23
2022-12-31T02:39:44.140Z,102588.77
2022-12-31T02:42:11.868Z,102588.15
2022-12-31T02:44:41.810Z,102586.04
2022-12-31T02:47:08.689Z,102582.82
2022-12-31T02:50:12.794Z,102584.77
2022-12-31T02:53:07.333Z,102580.69
2022-12-31T02:55:37.353Z,102583.51
2022-12-31T02:58:45.441Z,102583.17
2022-12-31T03:04:33.344Z,102588.80
2022-12-31T03:07:05.930Z,102587.33
2022-12-31T03:09:33.502Z,102587.48
2022-12-31T03:12:28.926Z,102585.20
2022-12-31T03:14:56.696Z,102585.21
2022-12-31T03:17:23.966Z,102582.36
2022-12-31T03:20:09.716Z,102582.77
2022-12-31T03:22:43.572Z,102576.95
2022-12-31T03:25:33.849Z,102579.02
2022-12-31T03:28:14.810Z,102581.02
2022-12-31T03:30:45.429Z,102583.46
2022-12-31T03:33:13.039Z,102583.17
2022-12-31T03:35:55.660Z,102582.56
2022-12-31T03:38:22.635Z,102586.80
2022-12-31T03:40:52.322Z,102585.74
2022-12-31T03:43:20.339Z,102587.53
2022-12-31T03:45:51.918Z,102589.98
2022-12-31T03:48:20.074Z,102593.10
2022-12-31T03:50:47.137Z,102594.83
2022-12-31T03:53:15.343Z,102593.23
2022-12-31T03:55:42.389Z,102594.38
2022-12-31T03:58:09.453Z,102594.30
2022-12-31T04:00:36.905Z,102595.80
2022-12-31T04:03:05.684Z,102595.12
2022-12-31T04:05:33.913Z,102595.80
2022-12-31T04:08:00.857Z,102596.87
2022-12-31T04:10:28.142Z,102596.55
2022-12-31T04:12:55.025Z,102596.73
2022-12-31T04:15:22.289Z,102596.58
2022-12-31T04:17:49.463Z,102598.70
2022-12-31T04:20:16.867Z,102601.89
2022-12-31T04:22:44.549Z,102605.70
2022-12-31T04:25:13.380Z,102604.36
2022-12-31T04:27:42.014Z,102603.02
2022-12-31T04:30:10.152Z,102604.45
2022-12-31T04:32:37.261Z,102610.64
2022-12-31T04:35:04.834Z,102619.35
2022-12-31T04:40:17.401Z,102626.33
2022-12-31T04:42:45.295Z,102624.77
2022-12-31T04:45:12.218Z,102628.88
2022-12-31T04:47:39.118Z,102631.38
2022-12-31T04:50:07.571Z,102631.66
2022-12-31T04:52:38.750Z,102633.81
2022-12-31T04:55:08.006Z,102637.02
2022-12-31T04:57:35.424Z,102637.03
2022-12-31T05:00:02.671Z,102640.23
2022-12-31T05:02:30.325Z,102639.07
2022-12-31T05:04:57.460Z,102640.33
2022-12-31T05:07:24.383Z,102639.14
2022-12-31T05:09:51.713Z,102645.21
2022-12-31T05:12:19.463Z,102642.07
2022-12-31T05:14:46.577Z,102640.56
2022-12-31T05:17:13.463Z,102639.67
2022-12-31T05:19:40.644Z,102639.79
2022-12-31T05:22:25.906Z,102643.48
2022-12-31T05:24:52.812Z,102641.78
2022-12-31T05:27:19.905Z,102646.75
2022-12-31T05:29:47.643Z,102650.71
2022-12-31T05:32:14.812Z,102654.98
2022-12-31T05:34:42.671Z,102656.41
2022-12-31T05:37:10.009Z,102658.30
2022-12-31T05:39:36.935Z,102661.14
2022-12-31T05:42:04.282Z,102664.89
2022-12-31T05:44:31.622Z,102661.28
2022-12-31T05:46:59.036Z,102670.44
2022-12-31T05:49:26.025Z,102670.61
2022-12-31T05:51:53.008Z,102673.52
2022-12-31T05:54:20.027Z,102674.68
2022-12-31T05:56:47.005Z,102679.16
2022-12-31T05:59:14.237Z,102679.12
2022-12-31T06:01:41.354Z,102683.55
2022-12-31T06:04:08.364Z,102683.80
2022-12-31T06:06:35.534Z,102688.03
2022-12-31T06:09:02.739Z,102689.83
2022-12-31T06:11:30.320Z,102690.52
2022-12-31T06:13:58.545Z,102692.44
2022-12-31T06:16:26.984Z,102694.77
2022-12-31T06:18:54.439Z,102694.15
2022-12-31T06:21:22.643Z,102696.95
2022-12-31T06:23:49.768Z,102698.02
2022-12-31T06:26:16.834Z,102700.25
2022-12-31T06:28:43.818Z,102698.70
2022-12-31T06:31:13.467Z,102701.56
2022-12-31T06:33:40.850Z,102700.83
2022-12-31T06:36:12.758Z,102703.43
2022-12-31T06:38:41.142Z,102702.05
2022-12-31T06:41:10.633Z,102706.61
2022-12-31T06:43:38.917Z,102708.73
2022-12-31T06:46:08.306Z,102711.90
2022-12-31T06:48:35.458Z,102715.73
2022-12-31T06:51:16.763Z,102712.51
2022-12-31T06:53:45.425Z,102712.83
2022-12-31T06:56:17.496Z,102714.90
2022-12-31T06:58:44.986Z,102714.00
2022-12-31T07:01:15.215Z,102715.22
2022-12-31T07:04:20.581Z,102719.41
2022-12-31T07:07:13.631Z,102719.41
2022-12-31T07:10:29.489Z,102716.12
2022-12-31T07:13:27.996Z,102724.50
2022-12-31T07:16:03.218Z,102728.95
2022-12-31T07:19:11.266Z,102729.39
2022-12-31T07:21:40.828Z,102727.23
2022-12-31T07:24:09.826Z,102729.88
2022-12-31T07:26:57.016Z,102734.56
2022-12-31T07:29:42.921Z,102734.93
2022-12-31T07:32:39.570Z,102738.02
2022-12-31T07:35:10.282Z,102738.85
2022-12-31T07:38:06.089Z,102744.79
2022-12-31T07:40:39.052Z,102745.92
2022-12-31T07:43:25.232Z,102749.31
2022-12-31T07:46:01.507Z,102753.14
2022-12-31T07:48:29.935Z,102754.33
2022-12-31T07:50:58.242Z,102758.29
2022-12-31T07:53:26.264Z,102759.58
2022-12-31T07:56:00.017Z,102762.85
2022-12-31T07:59:08.530Z,102764.88
2022-12-31T08:02:02.339Z,102764.34
2022-12-31T08:04:47.360Z,102762.42
2022-12-31T08:07:36.951Z,102765.72
2022-12-31T08:10:27.300Z,102766.13
2022-12-31T08:13:02.820Z,102768.05
2022-12-31T08:15:30.993Z,102768.50
2022-12-31T08:17:58.249Z,102772.16
2022-12-31T08:20:26.942Z,102773.42
2022-12-31T08:23:03.215Z,102774.77
2022-12-31T08:25:52.071Z,102777.02
2022-12-31T08:28:33.990Z,102781.74
2022-12-31T08:31:07.119Z,102787.64
2022-12-31T08:34:00.693Z,102792.82
2022-12-31T08:36:38.084Z,102795.02
2022-12-31T08:39:16.199Z,102798.15
2022-12-31T08:41:49.910Z,102798.80
2022-12-31T08:44:41.391Z,102800.15
2022-12-31T08:47:26.922Z,102803.05
2022-12-31T08:49:56.640Z,102803.24
2022-12-31T08:52:26.289Z,102802.19
2022-12-31T08:54:53.876Z,102802.35
2022-12-31T08:57:29.935Z,102802.83
2022-12-31T09:00:16.105Z,102803.04
2022-12-31T09:03:03.317Z,102804.90
2022-12-31T09:06:06.909Z,102803.80
2022-12-31T09:08:50.122Z,102805.56
2022-12-31T09:11:28.823Z,102805.55
2022-12-31T09:14:13.710Z,102806.92
2022-12-31T09:16:59.679Z,102805.30
2022-12-31T09:19:28.140Z,102807.26
2022-12-31T09:21:55.843Z,102810.60
2022-12-31T09:24:23.189Z,102810.60
2022-12-31T09:26:53.061Z,102811.78
2022-12-31T09:29:32.082Z,102812.23
2022-12-31T09:32:11.116Z,102814.67
2022-12-31T09:34:56.692Z,102811.38
2022-12-31T09:37:52.591Z,102810.19
2022-12-31T09:40:28.655Z,102812.35
2022-12-31T09:43:14.452Z,102811.31
2022-12-31T09:46:03.498Z,102805.41
2022-12-31T09:48:55.423Z,102804.98
2022-12-31T09:51:32.472Z,102800.70
2022-12-31T09:54:20.321Z,102796.55
2022-12-31T09:56:59.890Z,102794.35
2022-12-31T09:59:57.497Z,102795.05
2022-12-31T10:03:02.013Z,102783.75
2022-12-31T10:06:00.927Z,102787.39
2022-12-31T10:09:05.497Z,102787.21
2022-12-31T10:12:03.045Z,102781.44
2022-12-31T10:15:07.475Z,102780.25
2022-12-31T10:17:51.086Z,102782.13
2022-12-31T10:20:41.573Z,102778.42
2022-12-31T10:23:47.674Z,102778.70
2022-12-31T10:26:37.978Z,102775.31
2022-12-31T10:29:58.205Z,102773.71
2022-12-31T10:32:41.224Z,102769.44
2022-12-31T10:35:21.197Z,102763.63
2022-12-31T10:38:20.769Z,102761.63
2022-12-31T10:41:06.531Z,102762.71
2022-12-31T10:43:46.648Z,102763.95
2022-12-31T10:46:23.132Z,102761.05
2022-12-31T10:49:12.218Z,102756.94
2022-12-31T10:51:57.544Z,102747.20
2022-12-31T10:54:43.472Z,102744.95
2022-12-31T10:57:42.004Z,102740.73
2022-12-31T11:00:21.897Z,102744.91
2022-12-31T11:03:02.800Z,102738.60
2022-12-31T11:05:33.611Z,102738.40
2022-12-31T11:08:03.321Z,102736.84
2022-12-31T11:10:48.963Z,102729.94
2022-12-31T11:13:40.925Z,102724.98
2022-12-31T11:16:38.681Z,102722.86
2022-12-31T11:19:27.745Z,102717.52
2022-12-31T11:22:09.220Z,102716.17
2022-12-31T11:25:04.719Z,102709.20
2022-12-31T11:28:05.339Z,102708.27
2022-12-31T11:30:58.251Z,102702.05
2022-12-31T11:33:50.184Z,102697.69
2022-12-31T11:37:05.621Z,102698.59
2022-12-31T11:39:38.995Z,102698.16
2022-12-31T11:42:21.193Z,102699.22
2022-12-31T11:45:00.434Z,102696.95
2022-12-31T11:48:28.971Z,102693.68
2022-12-31T11:51:10.110Z,102689.36
2022-12-31T11:54:14.624Z,102681.14
2022-12-31T11:56:52.984Z,102678.63
2022-12-31T11:59:21.470Z,102676.88
2022-12-31T12:01:48.433Z,102669.84
2022-12-31T12:04:18.540Z,102666.07
2022-12-31T12:06:46.229Z,102662.52
2022-12-31T12:09:30.247Z,102660.86
2022-12-31T12:12:06.471Z,102656.17
2022-12-31T12:14:37.458Z,102651.20
2022-12-31T12:17:15.484Z,102650.14
2022-12-31T12:19:46.643Z,102648.47
2022-12-31T12:22:26.914Z,102645.27
2022-12-31T12:24:56.988Z,102643.14
2022-12-31T12:27:27.897Z,102641.52
2022-12-31T12:29:56.444Z,102643.05
2022-12-31T12:32:26.703Z,102642.60
2022-12-31T12:34:54.592Z,102642.75
2022-12-31T12:37:24.399Z,102642.37
2022-12-31T12:40:18.269Z,102643.96
2022-12-31T12:42:49.422Z,102648.34
2022-12-31T12:45:19.872Z,102648.09
2022-12-31T12:47:49.867Z,102642.14
2022-12-31T12:50:26.260Z,102642.38
2022-12-31T12:53:29.095Z,102641.73
2022-12-31T12:56:30.659Z,102647.02
2022-12-31T12:59:13.871Z,102647.58
2022-12-31T13:01:46.777Z,102646.67
2022-12-31T13:04:34.394Z,102652.78
2022-12-31T13:07:28.875Z,102650.74
2022-12-31T13:10:08.413Z,102650.75
2022-12-31T13:13:23.253Z,102651.39
2022-12-31T13:16:19.148Z,102651.33
2022-12-31T13:18:55.475Z,102650.89
2022-12-31T13:21:45.181Z,102651.09
2022-12-31T13:24:29.476Z,102646.16
2022-12-31T13:27:08.794Z,102644.98
2022-12-31T13:29:37.740Z,102643.52
2022-12-31T13:32:08.363Z,102645.92
2022-12-31T13:34:40.168Z,102645.63
2022-12-31T13:37:22.688Z,102647.39
2022-12-31T13:39:54.064Z,102646.21
2022-12-31T13:42:34.176Z,102645.80
2022-12-31T13:45:24.078Z,102645.59
2022-12-31T13:48:05.857Z,102638.80
2022-12-31T13:50:48.681Z,102640.13
2022-12-31T13:53:38.817Z,102640.79
2022-12-31T13:56:19.595Z,102643.55
2022-12-31T13:59:00.628Z,102645.59
2022-12-31T14:01:34.988Z,102646.17
2022-12-31T14:04:08.051Z,102642.67
2022-12-31T14:06:34.977Z,102638.64
2022-12-31T14:09:05.735Z,102641.50
2022-12-31T14:12:14.452Z,102639.99
2022-12-31T14:15:35.602Z,102642.02
2022-12-31T14:18:05.498Z,102649.86
2022-12-31T14:20:52.218Z,102652.34
2022-12-31T14:23:24.913Z,102647.08
2022-12-31T14:25:57.817Z,102648.88
2022-12-31T14:28:46.643Z,102649.86
2022-12-31T14:31:20.189Z,102647.86
2022-12-31T14:33:55.443Z,102651.02
2022-12-31T14:36:43.415Z,102652.14
2022-12-31T14:39:33.004Z,102650.91
2022-12-31T14:42:33.187Z,102653.36
2022-12-31T14:45:18.867Z,102653.77
2022-12-31T14:48:26.117Z,102658.09
2022-12-31T14:50:53.381Z,102660.46
2022-12-31T14:53:51.158Z,102671.36
2022-12-31T14:56:31.696Z,102675.11
2022-12-31T14:59:01.292Z,102682.32
2022-12-31T15:01:29.382Z,102679.31
2022-12-31T15:03:58.300Z,102683.06
2022-12-31T15:06:45.578Z,102678.23
2022-12-31T15:09:48.077Z,102679.23
2022-12-31T15:12:25.330Z,102678.92
2022-12-31T15:15:09.844Z,102682.09
2022-12-31T15:17:58.523Z,102686.36
2022-12-31T15:20:46.620Z,102691.09
2022-12-31T15:23:21.267Z,102696.54
2022-12-31T15:25:54.190Z,102699.16
2022-12-31T15:28:40.039Z,102701.20
2022-12-31T15:31:21.169Z,102702.17
2022-12-31T15:33:56.063Z,102698.83
2022-12-31T15:36:26.434Z,102702.29
2022-12-31T15:39:25.918Z,102700.62
2022-12-31T15:44:55.504Z,102701.89
2022-12-31T15:47:37.187Z,102705.39
2022-12-31T15:50:08.109Z,102700.30
2022-12-31T15:52:43.226Z,102703.31
2022-12-31T15:55:24.683Z,102699.27
2022-12-31T15:57:53.950Z,102698.43
2022-12-31T16:00:23.254Z,102701.89
2022-12-31T16:02:54.548Z,102701.92
2022-12-31T16:05:27.436Z,102704.05
2022-12-31T16:07:56.665Z,102702.61
2022-12-31T16:10:32.502Z,102701.92
2022-12-31T16:13:00.401Z,102699.48
2022-12-31T16:15:33.499Z,102696.27
2022-12-31T16:18:06.448Z,102698.34
2022-12-31T16:20:34.917Z,102695.91
2022-12-31T16:23:03.606Z,102695.64
2022-12-31T16:25:33.520Z,102696.56
2022-12-31T16:28:02.943Z,102699.27
2022-12-31T16:30:32.362Z,102705.69
2022-12-31T16:33:02.688Z,102706.39
2022-12-31T16:35:32.552Z,102709.94
2022-12-31T16:38:10.361Z,102714.41
2022-12-31T16:40:38.854Z,102709.73
2022-12-31T16:43:30.185Z,102710.85
2022-12-31T16:46:06.989Z,102712.38
2022-12-31T16:48:34.313Z,102713.92
2022-12-31T16:51:01.403Z,102715.88
2022-12-31T16:53:30.944Z,102715.59
2022-12-31T16:56:11.273Z,102719.50
2022-12-31T16:58:45.441Z,102720.02
2022-12-31T17:01:19.556Z,102724.46
2022-12-31T17:03:52.363Z,102728.16
2022-12-31T17:06:21.535Z,102728.31
2022-12-31T17:08:59.449Z,102728.20
2022-12-31T17:11:35.520Z,102735.62
2022-12-31T17:14:08.325Z,102737.50
2022-12-31T17:17:02.141Z,102738.67
2022-12-31T17:19:45.602Z,102741.63
2022-12-31T17:22:32.812Z,102747.06
2022-12-31T17:25:27.718Z,102746.76
2022-12-31T17:27:56.681Z,102750.14
2022-12-31T17:30:35.762Z,102749.35
2022-12-31T17:33:22.670Z,102750.10
2022-12-31T17:36:12.598Z,102749.38
2022-12-31T17:38:39.842Z,102751.33
2022-12-31T17:41:08.756Z,102752.67
2022-12-31T17:43:37.775Z,102756.70
2022-12-31T17:46:16.834Z,102752.60
2022-12-31T17:48:46.354Z,102755.37
2022-12-31T17:51:13.272Z,102756.69
2022-12-31T17:53:40.245Z,102763.31
2022-12-31T17:56:14.498Z,102767.02
2022-12-31T17:58:49.699Z,102768.83
2022-12-31T18:01:20.711Z,102766.63
2022-12-31T18:03:51.526Z,102766.27
2022-12-31T18:06:21.718Z,102769.35
2022-12-31T18:08:49.873Z,102770.85
2022-12-31T18:11:24.943Z,102773.09
2022-12-31T18:13:54.131Z,102773.83
2022-12-31T18:16:21.174Z,102774.05
2022-12-31T18:18:48.300Z,102779.63
2022-12-31T18:21:25.525Z,102781.91
2022-12-31T18:26:22.323Z,102788.27
2022-12-31T18:28:50.168Z,102788.52
2022-12-31T18:31:21.433Z,102792.22
2022-12-31T18:33:48.918Z,102792.54
2022-12-31T18:36:18.479Z,102791.04
2022-12-31T18:38:46.289Z,102789.13
2022-12-31T18:41:27.034Z,102790.62
2022-12-31T18:43:55.026Z,102790.52
2022-12-31T18:46:24.404Z,102790.07
2022-12-31T18:48:51.592Z,102794.14
2022-12-31T18:51:26.459Z,102798.33
2022-12-31T18:53:58.385Z,102797.23
2022-12-31T18:56:25.420Z,102796.30
2022-12-31T18:58:52.436Z,102795.52
2022-12-31T19:01:31.762Z,102797.64
2022-12-31T19:04:04.362Z,102797.15
2022-12-31T19:06:31.656Z,102802.27
2022-12-31T19:09:00.820Z,102804.80
2022-12-31T19:11:28.580Z,102806.89
2022-12-31T19:13:55.594Z,102807.41
2022-12-31T19:16:22.610Z,102804.36
2022-12-31T19:18:50.928Z,102809.90
2022-12-31T19:21:20.929Z,102811.24
2022-12-31T19:23:48.418Z,102813.60
2022-12-31T19:26:18.221Z,102814.17
2022-12-31T19:28:46.643Z,102816.91
2022-12-31T19:31:14.365Z,102816.99
2022-12-31T19:33:43.581Z,102816.18
2022-12-31T19:36:20.759Z,102810.92
2022-12-31T19:38:47.701Z,102813.38
2022-12-31T19:41:20.035Z,102811.26
2022-12-31T19:44:40.037Z,102811.54
2022-12-31T19:47:08.741Z,102812.55
2022-12-31T19:49:36.133Z,102812.23
2022-12-31T19:52:03.774Z,102810.78
2022-12-31T19:54:30.708Z,102806.23
2022-12-31T19:56:57.639Z,102804.95
2022-12-31T19:59:24.695Z,102802.44
2022-12-31T20:01:51.847Z,102801.41
2022-12-31T20:04:21.774Z,102799.27
2022-12-31T20:06:49.279Z,102797.96
2022-12-31T20:09:17.396Z,102794.98
2022-12-31T20:11:44.279Z,102794.13
2022-12-31T20:14:12.229Z,102790.75
2022-12-31T20:16:39.224Z,102789.48
2022-12-31T20:19:07.334Z,102792.17
2022-12-31T20:21:34.958Z,102795.17
2022-12-31T20:24:01.992Z,102797.83
2022-12-31T20:26:28.934Z,102802.34
2022-12-31T20:28:55.907Z,102798.71
2022-12-31T20:31:27.696Z,102798.86
2022-12-31T20:33:55.763Z,102797.98
2022-12-31T20:36:23.809Z,102801.85
2022-12-31T20:38:52.286Z,102805.75
2022-12-31T20:41:22.377Z,102805.42
2022-12-31T20:43:51.682Z,102801.63
2022-12-31T20:46:22.971Z,102802.24
2022-12-31T20:48:51.587Z,102801.30
2022-12-31T20:51:22.490Z,102801.35
2022-12-31T20:53:52.128Z,102803.05
2022-12-31T20:56:19.380Z,102804.12
2022-12-31T20:58:46.699Z,102801.36
2022-12-31T21:01:15.196Z,102802.39
2022-12-31T21:06:32.638Z,102809.73
2022-12-31T21:09:01.692Z,102809.90
2022-12-31T21:11:47.389Z,102812.52
2022-12-31T21:14:14.555Z,102813.88
2022-12-31T21:16:41.557Z,102817.30
2022-12-31T21:19:12.470Z,102817.05
2022-12-31T21:21:39.455Z,102816.81
2022-12-31T21:24:06.854Z,102813.05
2022-12-31T21:26:34.740Z,102814.14
2022-12-31T21:29:01.884Z,102810.08
2022-12-31T21:31:28.896Z,102814.80
2022-12-31T21:33:56.001Z,102814.44
2022-12-31T21:36:23.230Z,102815.02
2022-12-31T21:38:50.215Z,102813.34
2022-12-31T21:41:35.811Z,102815.21
2022-12-31T21:44:03.587Z,102814.82
2022-12-31T21:46:30.932Z,102817.76
2022-12-31T21:48:59.493Z,102821.54
2022-12-31T21:51:27.253Z,102826.81
2022-12-31T21:53:54.217Z,102828.76
2022-12-31T21:56:22.974Z,102829.20
2022-12-31T21:59:14.456Z,102828.56
2022-12-31T22:02:00.916Z,102830.44
2022-12-31T22:05:01.973Z,102828.49
2022-12-31T22:07:15.436Z,102826.98
2022-12-31T22:09:43.899Z,102829.14
2022-12-31T22:12:11.567Z,102828.14
2022-12-31T22:14:38.470Z,102828.70
2022-12-31T22:17:05.446Z,102834.82
2022-12-31T22:19:43.482Z,102837.19
2022-12-31T22:22:20.169Z,102837.72
2022-12-31T22:24:47.112Z,102837.75
2022-12-31T22:27:29.541Z,102841.94
2022-12-31T22:29:57.267Z,102839.50
2022-12-31T22:32:24.263Z,102837.06
2022-12-31T22:34:51.165Z,102835.89
2022-12-31T22:37:46.550Z,102837.48
2022-12-31T22:40:05.788Z,102839.95
2022-12-31T22:42:32.721Z,102836.70
2022-12-31T22:44:59.778Z,102839.92
2022-12-31T22:47:26.798Z,102844.15
2022-12-31T22:49:54.380Z,102841.64
2022-12-31T22:52:22.632Z,102842.20
2022-12-31T22:54:49.508Z,102841.08
2022-12-31T22:57:20.212Z,102837.77
2022-12-31T22:59:47.680Z,102836.89
2022-12-31T23:02:14.721Z,102835.92
2022-12-31T23:04:41.854Z,102835.55
2022-12-31T23:07:09.025Z,102837.63
2022-12-31T23:09:54.320Z,102840.08
2022-12-31T23:12:21.336Z,102840.63
2022-12-31T23:15:06.735Z,102842.02
2022-12-31T23:17:52.790Z,102845.30
2022-12-31T23:20:41.662Z,102848.77
2022-12-31T23:23:14.471Z,102848.11
2022-12-31T23:25:44.316Z,102850.42
2022-12-31T23:28:14.326Z,102849.57
2022-12-31T23:30:42.376Z,102847.27
2022-12-31T23:33:15.270Z,102845.95
2022-12-31T23:35:42.340Z,102848.24
2022-12-31T23:38:09.836Z,102844.83
2022-12-31T23:40:36.757Z,102841.80
2022-12-31T23:43:06.330Z,102841.73
2022-12-31T23:45:34.392Z,102844.15
2022-12-31T23:48:01.784Z,102843.95
2022-12-31T23:50:29.047Z,102843.14
2022-12-31T23:52:55.967Z,102845.24
2022-12-31T23:55:22.988Z,102845.33
2022-12-31T23:57:50.250Z,102842.64
